Airfield :
LOGIN :

Register | Disclaimer

   EN    FR    IT 

 










Legend :    VFR   Marginal VFR   IFR   Intensive IFR   Very Intensive IFR
Visi :
Ceiling :
>= 8 km
>= 3000ft
5 to 8 km
1000 to 3000 ft
1500m to 5 km
500 to 1000 ft
800 to 1500m
200 to 500 ft
< 800m
< 200 ft
Symbols :   Thunderstorms  Fog  Heavy snow  Heavy precipitations  Wind > 20 kt
SIGMETs :     Misc.  Thunderstorms  Icing  Turbulence  Mountain Waves  Volcanic Ashes







- Airport Elevation : 124 ft
- IATA code : AVN
- Download approach charts


LFMV - Avignon Caumont

CURRENT METAR :
  • 301400Z AUTO 27008KT 220V300 CAVOK 24/05 Q1024 NOSIG

EXPIRED METARs :
  • 301330Z AUTO 25006KT 180V300 CAVOK 25/06 Q1024 NOSIG
  • 301300Z AUTO 25008KT 220V290 9999 NSC 24/06 Q1024 NOSIG
  • 301230Z AUTO 26005KT 220V310 9999 NSC 24/06 Q1024 NOSIG
  • 301200Z AUTO VRB03KT 9999 NSC 24/06 Q1025 NOSIG
  • 301130Z AUTO 20003KT 130V250 9999 NSC 23/08 Q1025 NOSIG

TAF TAF LFMV
Valid from the 30 at 09:00 until the 31 at 09:00 UTC


300800Z 3009/3109 VRB05KT CAVOK
TEMPO 3012/3017 22010KT
TEMPO 3018/3106 2500 BR BKN005
PROB40
TEMPO 3018/3106 0500 FG VV///
ATIS : +33 4 90 84 32 84
No reported NOTAMs for that airfield.



MET'MAP, your aeronautical weather chart ! - Copyright ORBIFLY December 2007 - Disclaimer

ORBIFLY MET'MAP TEAM :

Programming & Development : Alexandra Zaïnal
Concept & Development : Baudouin d'Aumeries
Co-Development & Prog : Marc-Olivier Méhu
Technical & hardware support : Manuel Goepfert

Contact : metmap@orbifly.com




SOURCES & CREDITS :

   NOAA